Time;durP1;ratioP1;P1;durP2;ratioP2;P2;SDS_P1;SDS_P2;PMS_P1;PMS_P2;Temp;Humidity;BMP_temperature;BMP_pressure;BME280_temperature;BME280_humidity;BME280_pressure;Samples;Min_cycle;Max_cycle;Signal;HPM_P1;HPM_P2
2022/03/27 00:01:31;;;;;;;16.70;6.40;;;;;;;;;;10378157;28;20054;-67
2022/03/27 00:06:34;;;;;;;24.15;7.03;;;;;;;;;;10354833;28;20392;-67
2022/03/27 00:11:37;;;;;;;20.15;6.80;;;;;;;;;;10354279;28;20046;-67
2022/03/27 00:16:40;;;;;;;19.55;7.68;;;;;;;;;;10354456;28;20109;-67
2022/03/27 00:21:44;;;;;;;24.55;8.68;;;;;;;;;;10390611;28;20054;-67
2022/03/27 00:26:47;;;;;;;22.00;9.25;;;;;;;;;;10394256;28;20076;-67
2022/03/27 00:31:50;;;;;;;23.48;10.60;;;;;;;;;;10392909;28;20069;-67
2022/03/27 00:36:53;;;;;;;31.40;11.70;;;;;;;;;;10392531;28;20111;-67
2022/03/27 00:41:57;;;;;;;32.10;11.05;;;;;;;;;;10377227;28;20054;-66
2022/03/27 00:46:59;;;;;;;28.67;10.48;;;;;;;;;;10353045;28;20101;-67
2022/03/27 00:52:02;;;;;;;34.95;12.85;;;;;;;;;;10351032;28;20082;-67
2022/03/27 00:57:06;;;;;;;36.90;11.85;;;;;;;;;;10352707;28;20085;-67
2022/03/27 01:02:10;;;;;;;33.78;12.95;;;;;;;;;;10360626;28;20341;-67
2022/03/27 01:07:17;;;;;;;36.33;14.23;;;;;;;;;;10352299;28;20057;-67
2022/03/27 01:12:29;;;;;;;35.92;14.93;;;;;;;;;;10352705;28;20060;-67
2022/03/27 01:17:31;;;;;;;44.17;18.23;;;;;;;;;;10364840;28;20379;-67
2022/03/27 01:22:35;;;;;;;37.65;15.27;;;;;;;;;;10352793;28;20132;-67
2022/03/27 01:27:37;;;;;;;37.60;15.23;;;;;;;;;;10351243;28;20080;-67
2022/03/27 01:32:40;;;;;;;32.58;14.65;;;;;;;;;;10351194;28;20275;-67
2022/03/27 01:37:44;;;;;;;34.42;14.48;;;;;;;;;;10351948;28;20086;-67
2022/03/27 01:42:48;;;;;;;46.90;17.08;;;;;;;;;;10382665;28;20087;-67
2022/03/27 01:47:51;;;;;;;46.67;18.73;;;;;;;;;;10385557;28;20045;-67
2022/03/27 01:52:55;;;;;;;45.65;17.55;;;;;;;;;;10391295;28;20333;-67
2022/03/27 01:57:57;;;;;;;40.03;15.65;;;;;;;;;;10355235;28;20045;-67
2022/03/27 02:02:59;;;;;;;40.78;15.73;;;;;;;;;;10350636;28;20062;-66
2022/03/27 02:08:03;;;;;;;47.30;18.33;;;;;;;;;;10350689;28;20050;-67
2022/03/27 02:13:13;;;;;;;49.47;21.40;;;;;;;;;;10373520;28;20057;-67
2022/03/27 02:18:16;;;;;;;56.70;23.80;;;;;;;;;;10389126;28;20069;-67
2022/03/27 02:23:21;;;;;;;67.72;30.33;;;;;;;;;;10390896;28;20065;-67
2022/03/27 02:28:24;;;;;;;71.32;27.80;;;;;;;;;;10390561;28;20058;-67
2022/03/27 02:33:26;;;;;;;56.72;25.52;;;;;;;;;;10353665;28;20054;-67
2022/03/27 02:38:30;;;;;;;43.63;20.20;;;;;;;;;;10350111;28;20261;-67
2022/03/27 02:43:33;;;;;;;43.83;21.00;;;;;;;;;;10351109;28;20054;-67
2022/03/27 02:48:35;;;;;;;54.83;22.67;;;;;;;;;;10355979;28;20283;-67
2022/03/27 02:53:39;;;;;;;59.40;23.17;;;;;;;;;;10357486;28;20273;-67
2022/03/27 02:58:42;;;;;;;63.55;22.58;;;;;;;;;;10356454;28;20081;-67
2022/03/27 03:03:44;;;;;;;52.78;21.70;;;;;;;;;;10364078;28;20062;-67
2022/03/27 03:08:48;;;;;;;50.20;19.85;;;;;;;;;;10356834;28;20073;-67
2022/03/27 03:13:52;;;;;;;51.10;20.45;;;;;;;;;;10357619;28;20078;-67
2022/03/27 03:18:55;;;;;;;56.70;21.70;;;;;;;;;;10354835;28;20078;-67
2022/03/27 03:23:59;;;;;;;46.17;19.20;;;;;;;;;;10356428;28;20058;-67
2022/03/27 03:29:01;;;;;;;48.55;19.80;;;;;;;;;;10356924;28;20096;-67
2022/03/27 03:34:03;;;;;;;46.50;18.73;;;;;;;;;;10358431;28;20396;-67
2022/03/27 03:39:08;;;;;;;39.08;18.77;;;;;;;;;;10358807;28;20081;-67
2022/03/27 03:44:12;;;;;;;54.08;22.23;;;;;;;;;;10355618;28;20050;-67
2022/03/27 03:49:14;;;;;;;51.80;25.25;;;;;;;;;;10354943;28;20038;-67
2022/03/27 03:54:18;;;;;;;45.25;21.60;;;;;;;;;;10354397;28;20100;-67
2022/03/27 03:59:20;;;;;;;47.30;19.42;;;;;;;;;;10393486;28;20064;-67
2022/03/27 04:04:23;;;;;;;43.60;16.15;;;;;;;;;;10394065;28;20042;-67
2022/03/27 04:09:27;;;;;;;40.58;17.45;;;;;;;;;;10367320;28;20078;-67
2022/03/27 04:14:34;;;;;;;41.80;16.95;;;;;;;;;;10353330;28;20089;-67
2022/03/27 04:19:36;;;;;;;75.55;29.27;;;;;;;;;;10367098;28;20042;-67
2022/03/27 04:24:40;;;;;;;92.43;36.35;;;;;;;;;;10353014;28;20085;-67
2022/03/27 04:29:43;;;;;;;58.13;23.48;;;;;;;;;;10352313;28;20165;-67
2022/03/27 04:34:50;;;;;;;51.42;20.52;;;;;;;;;;10360783;28;20058;-67
2022/03/27 04:39:59;;;;;;;51.17;21.10;;;;;;;;;;10353140;28;20058;-67
2022/03/27 04:45:01;;;;;;;45.92;19.13;;;;;;;;;;10353234;28;20357;-67
2022/03/27 04:50:05;;;;;;;58.63;23.67;;;;;;;;;;10351470;28;20334;-67
2022/03/27 04:55:09;;;;;;;65.97;24.10;;;;;;;;;;10352157;28;20077;-67
2022/03/27 05:00:15;;;;;;;56.65;24.20;;;;;;;;;;10392186;28;20058;-67
2022/03/27 05:05:17;;;;;;;61.83;24.02;;;;;;;;;;10362774;28;20296;-67
2022/03/27 05:10:21;;;;;;;47.40;21.23;;;;;;;;;;10358792;28;20275;-68
2022/03/27 05:15:24;;;;;;;44.15;19.08;;;;;;;;;;10351253;28;20053;-66
2022/03/27 05:20:28;;;;;;;40.85;18.95;;;;;;;;;;10350833;28;20070;-68
2022/03/27 05:25:39;;;;;;;41.17;16.83;;;;;;;;;;10349979;28;20344;-68
2022/03/27 05:30:43;;;;;;;43.20;19.27;;;;;;;;;;10364926;28;20353;-68
2022/03/27 05:35:45;;;;;;;45.47;20.02;;;;;;;;;;10347629;28;20092;-67
2022/03/27 05:40:49;;;;;;;51.90;22.48;;;;;;;;;;10365088;28;20332;-67
2022/03/27 05:45:51;;;;;;;43.25;21.02;;;;;;;;;;10350275;28;20050;-68
2022/03/27 05:50:54;;;;;;;44.30;19.52;;;;;;;;;;10351116;28;20105;-69
2022/03/27 05:55:59;;;;;;;43.35;20.05;;;;;;;;;;10350754;28;20054;-69
2022/03/27 06:01:01;;;;;;;46.28;23.58;;;;;;;;;;10348463;28;20178;-66
2022/03/27 06:06:04;;;;;;;52.97;30.08;;;;;;;;;;10349374;28;20043;-68
2022/03/27 06:11:08;;;;;;;64.85;34.85;;;;;;;;;;10374148;28;20049;-66
2022/03/27 06:16:10;;;;;;;30.70;13.57;;;;;;;;;;10370801;28;20065;-67
2022/03/27 06:21:13;;;;;;;28.63;12.88;;;;;;;;;;10358943;28;20392;-69
2022/03/27 06:26:16;;;;;;;30.30;13.18;;;;;;;;;;10359442;28;20334;-68
2022/03/27 06:31:19;;;;;;;22.65;11.20;;;;;;;;;;10356990;28;20042;-68
2022/03/27 06:36:21;;;;;;;31.73;12.35;;;;;;;;;;10367075;28;20231;-69
2022/03/27 06:41:26;;;;;;;25.13;11.00;;;;;;;;;;10360442;28;20042;-68
2022/03/27 06:46:28;;;;;;;32.10;11.02;;;;;;;;;;10356326;28;20245;-68
2022/03/27 06:51:34;;;;;;;27.77;10.73;;;;;;;;;;10357491;28;20329;-69
2022/03/27 06:56:41;;;;;;;26.67;10.10;;;;;;;;;;10357530;28;20053;-69
2022/03/27 07:07:03;;;;;;;25.40;11.93;;;;;;;;;;10383160;28;20273;-68
2022/03/27 07:12:09;;;;;;;20.05;11.43;;;;;;;;;;10357179;28;20114;-70
2022/03/27 07:17:11;;;;;;;23.92;14.07;;;;;;;;;;10369133;28;20070;-69
2022/03/27 07:22:15;;;;;;;17.40;6.70;;;;;;;;;;10369963;28;20141;-68
2022/03/27 07:27:22;;;;;;;13.82;5.90;;;;;;;;;;10375135;28;20046;-71
2022/03/27 07:32:24;;;;;;;9.88;5.60;;;;;;;;;;10353546;28;20174;-68
2022/03/27 07:37:27;;;;;;;18.13;8.45;;;;;;;;;;10352102;28;20054;-71
2022/03/27 07:42:32;;;;;;;17.85;9.38;;;;;;;;;;10352403;28;20045;-69
2022/03/27 07:47:34;;;;;;;18.38;8.70;;;;;;;;;;10353027;28;20316;-70
2022/03/27 07:52:37;;;;;;;10.70;6.93;;;;;;;;;;10350718;28;20065;-68
2022/03/27 07:57:41;;;;;;;6.68;3.40;;;;;;;;;;10389577;28;20076;-69
2022/03/27 08:02:44;;;;;;;9.73;2.83;;;;;;;;;;10356909;28;20087;-67
2022/03/27 08:07:47;;;;;;;3.95;2.95;;;;;;;;;;10354580;28;20050;-71
2022/03/27 08:12:50;;;;;;;4.20;2.28;;;;;;;;;;10383183;28;20069;-68
2022/03/27 08:17:53;;;;;;;3.90;1.40;;;;;;;;;;10362540;28;20057;-70
2022/03/27 08:22:57;;;;;;;4.43;2.45;;;;;;;;;;10353639;28;20273;-71
2022/03/27 08:28:00;;;;;;;6.72;1.80;;;;;;;;;;10353120;28;20092;-69
2022/03/27 08:33:03;;;;;;;3.25;2.17;;;;;;;;;;10384427;28;20053;-71
2022/03/27 08:38:06;;;;;;;75.82;15.80;;;;;;;;;;10354470;28;20113;-71
2022/03/27 08:43:12;;;;;;;45.83;17.77;;;;;;;;;;10355836;28;20060;-67
2022/03/27 08:48:14;;;;;;;6.95;3.40;;;;;;;;;;10363790;28;20056;-68
2022/03/27 08:53:29;;;;;;;10.80;3.00;;;;;;;;;;10393257;28;20049;-67
2022/03/27 08:58:36;;;;;;;4.20;2.30;;;;;;;;;;10378421;28;20343;-68
2022/03/27 09:03:38;;;;;;;3.55;2.30;;;;;;;;;;10347357;28;20339;-68
2022/03/27 09:08:41;;;;;;;4.63;1.52;;;;;;;;;;10350992;28;20042;-72
2022/03/27 09:13:48;;;;;;;4.35;1.98;;;;;;;;;;10350938;28;20237;-69
2022/03/27 09:18:52;;;;;;;5.97;2.50;;;;;;;;;;10381703;28;20074;-70
2022/03/27 09:23:58;;;;;;;4.15;1.80;;;;;;;;;;10352592;28;20042;-72
2022/03/27 09:29:09;;;;;;;8.35;2.63;;;;;;;;;;10388798;28;20061;-70
2022/03/27 09:34:11;;;;;;;4.68;2.17;;;;;;;;;;10377049;28;20050;-70
2022/03/27 09:39:16;;;;;;;5.55;2.80;;;;;;;;;;10348419;28;20069;-66
2022/03/27 09:44:22;;;;;;;6.47;2.80;;;;;;;;;;10350087;28;20069;-67
2022/03/27 09:49:41;;;;;;;7.80;2.53;;;;;;;;;;10362759;28;20045;-72
2022/03/27 09:54:52;;;;;;;9.63;3.40;;;;;;;;;;10350114;28;20061;-70
2022/03/27 09:59:58;;;;;;;8.23;3.15;;;;;;;;;;10352661;28;20124;-68
2022/03/27 10:05:03;;;;;;;5.30;2.80;;;;;;;;;;10350475;28;20120;-69
2022/03/27 10:10:08;;;;;;;6.90;3.22;;;;;;;;;;10349345;28;20065;-68
2022/03/27 10:15:13;;;;;;;12.57;8.40;;;;;;;;;;10351834;28;20274;-69
2022/03/27 10:20:20;;;;;;;11.52;6.28;;;;;;;;;;10349260;28;20280;-68
2022/03/27 10:25:25;;;;;;;3.92;2.05;;;;;;;;;;10321682;28;20109;-68
2022/03/27 10:30:29;;;;;;;6.32;3.90;;;;;;;;;;10387200;28;20225;-66
2022/03/27 10:35:48;;;;;;;8.97;4.57;;;;;;;;;;10353268;28;20117;-68
2022/03/27 10:41:00;;;;;;;6.85;2.03;;;;;;;;;;10350107;28;20078;-68
2022/03/27 10:46:15;;;;;;;6.20;1.85;;;;;;;;;;10388451;28;20077;-68
2022/03/27 10:51:38;;;;;;;3.53;2.08;;;;;;;;;;10369499;28;20046;-68
2022/03/27 10:56:42;;;;;;;6.38;2.50;;;;;;;;;;10348903;28;20070;-66
2022/03/27 11:01:48;;;;;;;6.28;2.75;;;;;;;;;;10353854;28;20088;-67
2022/03/27 11:06:51;;;;;;;4.38;2.50;;;;;;;;;;10376263;28;20046;-67
2022/03/27 11:11:54;;;;;;;4.50;2.20;;;;;;;;;;10368476;28;20050;-68
2022/03/27 11:17:13;;;;;;;5.57;2.30;;;;;;;;;;10396252;28;20084;-69
2022/03/27 11:22:47;;;;;;;4.05;2.38;;;;;;;;;;10387492;28;20069;-66
2022/03/27 11:27:58;;;;;;;17.70;2.92;;;;;;;;;;10397512;28;20310;-66
2022/03/27 11:33:16;;;;;;;5.85;2.88;;;;;;;;;;10377148;28;20112;-67
2022/03/27 11:38:21;;;;;;;6.03;2.85;;;;;;;;;;10354276;28;20058;-68
2022/03/27 11:43:31;;;;;;;7.13;2.90;;;;;;;;;;10374423;28;20061;-68
2022/03/27 11:48:35;;;;;;;8.98;3.40;;;;;;;;;;10397997;28;20049;-68
2022/03/27 11:53:37;;;;;;;6.88;4.15;;;;;;;;;;10375129;28;20088;-68
2022/03/27 11:58:40;;;;;;;9.13;3.90;;;;;;;;;;10396356;28;20050;-68
2022/03/27 12:03:43;;;;;;;9.07;4.10;;;;;;;;;;10374049;28;20061;-69
2022/03/27 12:08:48;;;;;;;6.70;2.75;;;;;;;;;;10355561;28;20225;-68
2022/03/27 12:13:51;;;;;;;9.73;3.25;;;;;;;;;;10363818;28;20273;-68
2022/03/27 12:18:55;;;;;;;10.10;3.80;;;;;;;;;;10374221;28;20061;-68
2022/03/27 12:24:04;;;;;;;10.20;3.13;;;;;;;;;;10355687;28;20214;-67
2022/03/27 12:34:42;;;;;;;6.35;3.58;;;;;;;;;;10357221;28;20069;-66
2022/03/27 12:40:07;;;;;;;9.68;5.55;;;;;;;;;;10353604;28;20061;-67
2022/03/27 12:45:13;;;;;;;11.43;7.97;;;;;;;;;;10326557;28;20106;-69
2022/03/27 12:50:32;;;;;;;7.75;4.88;;;;;;;;;;10312824;28;20051;-70
2022/03/27 12:55:43;;;;;;;6.82;4.32;;;;;;;;;;10320364;28;20054;-69
2022/03/27 13:00:46;;;;;;;10.55;4.50;;;;;;;;;;10366230;28;20066;-68
2022/03/27 13:06:02;;;;;;;35.13;24.33;;;;;;;;;;10352415;28;20465;-68
2022/03/27 13:11:06;;;;;;;8.30;3.83;;;;;;;;;;10350034;28;20082;-69
2022/03/27 13:16:20;;;;;;;14.80;9.63;;;;;;;;;;10350599;28;20042;-68
2022/03/27 13:21:24;;;;;;;7.38;2.75;;;;;;;;;;10350488;28;20050;-70
2022/03/27 13:26:27;;;;;;;4.77;3.00;;;;;;;;;;10360545;28;20068;-68
2022/03/27 13:31:29;;;;;;;4.38;2.47;;;;;;;;;;10390635;28;20251;-70
2022/03/27 13:36:35;;;;;;;6.32;3.22;;;;;;;;;;10373457;28;20050;-69
2022/03/27 13:47:17;;;;;;;8.77;4.35;;;;;;;;;;10972100;23;20469;-69
2022/03/27 13:57:32;;;;;;;7.18;3.85;;;;;;;;;;10824863;23;20104;-66
2022/03/27 14:02:35;;;;;;;10.20;5.00;;;;;;;;;;10148482;29;20080;-67
2022/03/27 14:07:37;;;;;;;9.10;4.00;;;;;;;;;;10152104;29;20063;-66
2022/03/27 14:12:42;;;;;;;7.72;3.80;;;;;;;;;;10152256;29;20052;-66
2022/03/27 14:17:48;;;;;;;10.75;4.15;;;;;;;;;;10150981;29;20044;-66
2022/03/27 14:22:50;;;;;;;10.50;3.00;;;;;;;;;;10165304;29;20135;-65
2022/03/27 14:27:56;;;;;;;4.22;2.83;;;;;;;;;;10152658;29;20300;-66
2022/03/27 14:32:58;;;;;;;9.10;3.20;;;;;;;;;;10149435;29;20052;-66
2022/03/27 14:38:00;;;;;;;10.55;3.67;;;;;;;;;;10149318;29;20048;-66
2022/03/27 14:43:05;;;;;;;7.53;2.95;;;;;;;;;;10159786;29;20052;-66
2022/03/27 14:48:08;;;;;;;9.63;3.50;;;;;;;;;;10157871;29;20040;-66
2022/03/27 14:53:10;;;;;;;4.70;2.58;;;;;;;;;;10158707;29;20366;-64
2022/03/27 14:58:14;;;;;;;13.32;4.32;;;;;;;;;;10147448;29;20061;-65
2022/03/27 15:03:17;;;;;;;8.95;2.90;;;;;;;;;;10137483;29;20072;-66
2022/03/27 15:08:19;;;;;;;10.38;4.20;;;;;;;;;;10157729;29;20049;-65
2022/03/27 15:13:23;;;;;;;9.93;4.05;;;;;;;;;;10158527;29;20052;-66
2022/03/27 15:18:25;;;;;;;8.80;3.80;;;;;;;;;;10140397;29;20129;-64
2022/03/27 15:23:28;;;;;;;8.07;4.35;;;;;;;;;;10158323;29;20104;-66
2022/03/27 15:28:31;;;;;;;9.63;3.83;;;;;;;;;;10153425;29;20390;-69
2022/03/27 15:33:34;;;;;;;14.25;3.97;;;;;;;;;;10157074;29;20045;-67
2022/03/27 15:38:37;;;;;;;6.50;4.10;;;;;;;;;;10157905;29;20215;-66
2022/03/27 15:43:42;;;;;;;6.82;3.35;;;;;;;;;;10156543;29;20200;-67
2022/03/27 15:48:45;;;;;;;8.98;3.90;;;;;;;;;;10143840;29;20084;-65
2022/03/27 15:53:47;;;;;;;8.43;4.75;;;;;;;;;;10149503;29;20246;-66
2022/03/27 15:58:51;;;;;;;11.60;4.57;;;;;;;;;;10155618;29;20052;-67
2022/03/27 16:03:54;;;;;;;11.87;4.80;;;;;;;;;;10150989;29;20055;-67
2022/03/27 16:08:59;;;;;;;7.63;4.05;;;;;;;;;;10155258;29;20055;-66
2022/03/27 16:14:04;;;;;;;9.63;5.30;;;;;;;;;;10150787;29;20076;-67
2022/03/27 16:19:07;;;;;;;8.60;3.80;;;;;;;;;;10154859;29;20284;-65
2022/03/27 16:24:09;;;;;;;14.60;5.60;;;;;;;;;;10156821;29;20064;-65
2022/03/27 16:29:13;;;;;;;7.72;3.85;;;;;;;;;;10154732;29;20266;-66
2022/03/27 16:34:16;;;;;;;7.00;4.13;;;;;;;;;;10156794;29;20370;-67
2022/03/27 16:39:18;;;;;;;7.65;3.95;;;;;;;;;;10155778;29;20044;-66
2022/03/27 16:44:23;;;;;;;9.27;4.30;;;;;;;;;;10152343;29;20051;-65
2022/03/27 16:49:25;;;;;;;7.47;3.40;;;;;;;;;;10154530;29;20036;-66
2022/03/27 16:54:28;;;;;;;9.63;4.13;;;;;;;;;;10153852;29;20060;-66
2022/03/27 16:59:32;;;;;;;6.53;3.97;;;;;;;;;;10154084;29;20072;-65
2022/03/27 17:04:35;;;;;;;7.63;4.22;;;;;;;;;;10154256;29;20107;-65
2022/03/27 17:09:37;;;;;;;13.40;4.63;;;;;;;;;;10155442;29;20383;-66
2022/03/27 17:14:41;;;;;;;15.80;5.22;;;;;;;;;;10148458;29;20368;-66
2022/03/27 17:19:43;;;;;;;10.98;4.80;;;;;;;;;;10154681;29;20075;-67
2022/03/27 17:24:45;;;;;;;12.48;5.05;;;;;;;;;;10154373;29;20063;-67
2022/03/27 17:29:49;;;;;;;13.50;6.55;;;;;;;;;;10152583;29;20347;-69
2022/03/27 17:34:52;;;;;;;13.98;6.70;;;;;;;;;;10152862;29;20220;-67
2022/03/27 17:39:55;;;;;;;11.50;5.70;;;;;;;;;;10153373;29;20049;-67
2022/03/27 17:44:59;;;;;;;9.25;5.25;;;;;;;;;;10152495;29;20052;-66
2022/03/27 17:50:01;;;;;;;13.65;6.95;;;;;;;;;;10152983;29;20250;-66
2022/03/27 17:55:04;;;;;;;21.52;9.93;;;;;;;;;;10152387;29;20319;-67
2022/03/27 18:00:10;;;;;;;33.55;15.27;;;;;;;;;;10152761;29;20125;-67
2022/03/27 18:05:13;;;;;;;16.65;7.95;;;;;;;;;;10164868;29;20223;-67
2022/03/27 18:10:16;;;;;;;14.82;7.32;;;;;;;;;;10152675;29;20069;-66
2022/03/27 18:15:20;;;;;;;15.88;7.72;;;;;;;;;;10157933;29;20342;-66
2022/03/27 18:20:22;;;;;;;18.73;8.95;;;;;;;;;;10158207;29;20080;-66
2022/03/27 18:25:25;;;;;;;27.67;10.85;;;;;;;;;;10156107;29;20072;-67
2022/03/27 18:30:28;;;;;;;26.33;9.77;;;;;;;;;;10158940;29;20053;-66
2022/03/27 18:35:31;;;;;;;16.40;8.55;;;;;;;;;;10160337;29;20053;-67
2022/03/27 18:40:33;;;;;;;22.08;9.30;;;;;;;;;;10156873;29;20064;-68
2022/03/27 18:45:37;;;;;;;23.00;10.43;;;;;;;;;;10157815;29;20064;-66
2022/03/27 18:50:40;;;;;;;25.08;10.70;;;;;;;;;;10158156;29;20339;-67
2022/03/27 18:55:43;;;;;;;28.35;10.90;;;;;;;;;;10157158;29;20044;-67
2022/03/27 19:00:47;;;;;;;23.08;10.73;;;;;;;;;;10154438;29;20064;-67
2022/03/27 19:05:50;;;;;;;15.20;8.00;;;;;;;;;;10158406;29;20068;-65
2022/03/27 19:10:53;;;;;;;17.98;7.50;;;;;;;;;;10156618;29;20048;-67
2022/03/27 19:15:56;;;;;;;16.63;7.95;;;;;;;;;;10157928;29;20083;-66
2022/03/27 19:21:04;;;;;;;17.88;8.35;;;;;;;;;;10156276;29;20063;-68
2022/03/27 19:26:07;;;;;;;18.02;7.45;;;;;;;;;;10169161;29;20351;-67
2022/03/27 19:31:11;;;;;;;16.10;7.47;;;;;;;;;;10156835;29;20051;-67
2022/03/27 19:36:14;;;;;;;18.20;7.87;;;;;;;;;;10139450;29;20052;-67
2022/03/27 19:41:17;;;;;;;19.63;7.93;;;;;;;;;;10157492;29;20620;-67
2022/03/27 19:46:27;;;;;;;20.27;6.88;;;;;;;;;;10156591;29;20056;-67
2022/03/27 19:51:29;;;;;;;19.00;7.60;;;;;;;;;;10155644;29;20044;-67
2022/03/27 19:56:32;;;;;;;23.45;8.65;;;;;;;;;;10154364;29;20052;-67
2022/03/27 20:01:37;;;;;;;21.85;8.75;;;;;;;;;;10152868;29;20351;-66
2022/03/27 20:06:39;;;;;;;17.02;8.60;;;;;;;;;;10156787;29;20234;-67
2022/03/27 20:11:44;;;;;;;16.77;8.38;;;;;;;;;;10154171;29;20093;-66
2022/03/27 20:16:48;;;;;;;19.63;9.80;;;;;;;;;;10156078;29;20180;-68
2022/03/27 20:21:51;;;;;;;19.25;8.40;;;;;;;;;;10152474;29;20044;-67
2022/03/27 20:26:56;;;;;;;16.25;8.20;;;;;;;;;;10152627;29;20064;-67
2022/03/27 20:32:00;;;;;;;13.80;8.10;;;;;;;;;;10167196;29;20326;-67
2022/03/27 20:37:02;;;;;;;16.17;8.55;;;;;;;;;;10154334;29;20075;-67
2022/03/27 20:42:06;;;;;;;18.05;8.70;;;;;;;;;;10154400;29;20093;-67
2022/03/27 20:47:09;;;;;;;22.88;9.55;;;;;;;;;;10154636;29;20060;-67
2022/03/27 20:52:12;;;;;;;25.85;11.20;;;;;;;;;;10153351;29;20263;-67
2022/03/27 20:57:14;;;;;;;25.30;11.75;;;;;;;;;;10153914;29;20184;-67
2022/03/27 21:02:18;;;;;;;24.42;10.25;;;;;;;;;;10130881;29;20095;-66
2022/03/27 21:07:21;;;;;;;20.15;10.20;;;;;;;;;;10138639;29;20084;-67
2022/03/27 21:12:23;;;;;;;19.02;9.38;;;;;;;;;;10154145;29;20074;-66
2022/03/27 21:17:27;;;;;;;22.30;10.23;;;;;;;;;;10152493;29;20089;-68
2022/03/27 21:22:29;;;;;;;23.10;9.98;;;;;;;;;;10139903;29;20052;-66
2022/03/27 21:27:32;;;;;;;20.20;9.80;;;;;;;;;;10153333;29;20303;-67
2022/03/27 21:32:36;;;;;;;25.10;11.07;;;;;;;;;;10151699;29;20060;-67
2022/03/27 21:37:38;;;;;;;20.35;10.57;;;;;;;;;;10154346;29;20343;-67
2022/03/27 21:42:40;;;;;;;27.10;11.13;;;;;;;;;;10153021;29;20351;-66
2022/03/27 21:47:44;;;;;;;25.33;11.32;;;;;;;;;;10153063;29;20288;-67
2022/03/27 21:52:48;;;;;;;26.25;11.30;;;;;;;;;;10149400;29;20044;-67
2022/03/27 21:57:50;;;;;;;29.80;12.52;;;;;;;;;;10152196;29;20072;-67
2022/03/27 22:02:55;;;;;;;23.85;11.40;;;;;;;;;;10129666;29;20284;-66
2022/03/27 22:07:57;;;;;;;22.70;11.73;;;;;;;;;;10144069;29;20048;-66
2022/03/27 22:12:59;;;;;;;19.98;11.43;;;;;;;;;;10118649;29;20056;-66
2022/03/27 22:18:03;;;;;;;24.10;11.65;;;;;;;;;;10153533;29;20045;-66
2022/03/27 22:23:05;;;;;;;26.23;11.88;;;;;;;;;;10152945;29;20291;-67
2022/03/27 22:28:08;;;;;;;22.52;12.30;;;;;;;;;;10152526;29;20093;-67
2022/03/27 22:33:12;;;;;;;21.92;12.43;;;;;;;;;;10145753;29;20096;-66
2022/03/27 22:38:15;;;;;;;27.95;12.75;;;;;;;;;;10151549;29;20104;-65
2022/03/27 22:43:18;;;;;;;21.35;11.68;;;;;;;;;;10146270;29;20044;-66
2022/03/27 22:48:22;;;;;;;22.38;13.07;;;;;;;;;;10152177;29;20056;-65
2022/03/27 22:53:24;;;;;;;25.58;12.63;;;;;;;;;;10151757;29;20079;-65
2022/03/27 22:58:27;;;;;;;25.60;12.07;;;;;;;;;;10132714;29;20061;-67
2022/03/27 23:03:31;;;;;;;27.88;13.00;;;;;;;;;;10137170;29;20348;-67
2022/03/27 23:08:34;;;;;;;26.63;12.30;;;;;;;;;;10156975;29;20049;-66
2022/03/27 23:13:36;;;;;;;28.23;12.80;;;;;;;;;;10157780;29;20052;-66
2022/03/27 23:18:40;;;;;;;24.45;13.05;;;;;;;;;;10135949;29;20355;-65
2022/03/27 23:23:42;;;;;;;25.40;12.10;;;;;;;;;;10143216;29;20093;-65
2022/03/27 23:28:44;;;;;;;28.30;13.43;;;;;;;;;;10142280;29;20071;-66
2022/03/27 23:33:48;;;;;;;36.70;15.48;;;;;;;;;;10119711;29;20053;-65
2022/03/27 23:38:50;;;;;;;33.65;15.38;;;;;;;;;;10145109;29;20068;-65
2022/03/27 23:43:53;;;;;;;34.35;14.90;;;;;;;;;;10157768;29;20381;-66
2022/03/27 23:48:57;;;;;;;30.90;14.90;;;;;;;;;;10157337;29;20064;-65
2022/03/27 23:54:00;;;;;;;25.48;14.10;;;;;;;;;;10157773;29;20091;-65
2022/03/27 23:59:02;;;;;;;29.65;14.63;;;;;;;;;;10143099;29;20236;-66
